sensor_id;sensor_type;location;lat;lon;timestamp;pressure;altitude;pressure_sealevel;temperature;humidity
50550;BME280;36505;52.512;13.460;2022-12-18T00:01:14;102771.94;;;-4.75;84.12
50550;BME280;36505;52.512;13.460;2022-12-18T00:03:40;102786.94;;;-4.73;84.41
50550;BME280;36505;52.512;13.460;2022-12-18T00:06:05;102786.63;;;-4.68;84.26
50550;BME280;36505;52.512;13.460;2022-12-18T00:08:31;102788.34;;;-4.96;84.13
50550;BME280;36505;52.512;13.460;2022-12-18T00:11:06;102797.22;;;-4.95;84.17
50550;BME280;36505;52.512;13.460;2022-12-18T00:13:32;102794.66;;;-4.83;84.42
50550;BME280;36505;52.512;13.460;2022-12-18T00:16:02;102784.66;;;-4.79;84.54
50550;BME280;36505;52.512;13.460;2022-12-18T00:18:28;102789.78;;;-4.76;84.22
50550;BME280;36505;52.512;13.460;2022-12-18T00:20:53;102789.38;;;-4.84;83.91
50550;BME280;36505;52.512;13.460;2022-12-18T00:23:19;102786.16;;;-4.89;83.47
50550;BME280;36505;52.512;13.460;2022-12-18T00:25:44;102790.25;;;-4.98;83.33
50550;BME280;36505;52.512;13.460;2022-12-18T00:28:09;102787.66;;;-5.13;83.68
50550;BME280;36505;52.512;13.460;2022-12-18T00:30:34;102776.97;;;-5.28;84.15
50550;BME280;36505;52.512;13.460;2022-12-18T00:33:00;102787.56;;;-5.26;83.71
50550;BME280;36505;52.512;13.460;2022-12-18T00:35:25;102790.28;;;-5.42;84.71
50550;BME280;36505;52.512;13.460;2022-12-18T00:37:50;102785.31;;;-5.48;84.56
50550;BME280;36505;52.512;13.460;2022-12-18T00:40:16;102780.63;;;-5.44;84.72
50550;BME280;36505;52.512;13.460;2022-12-18T00:42:41;102786.75;;;-5.42;84.74
50550;BME280;36505;52.512;13.460;2022-12-18T00:45:30;102786.91;;;-5.45;84.74
50550;BME280;36505;52.512;13.460;2022-12-18T00:47:56;102787.72;;;-5.59;84.67
50550;BME280;36505;52.512;13.460;2022-12-18T00:50:23;102784.06;;;-5.72;84.71
50550;BME280;36505;52.512;13.460;2022-12-18T00:52:49;102787.28;;;-5.81;85.33
50550;BME280;36505;52.512;13.460;2022-12-18T00:55:15;102772.47;;;-6.01;85.82
50550;BME280;36505;52.512;13.460;2022-12-18T00:57:41;102777.38;;;-6.09;86.74
50550;BME280;36505;52.512;13.460;2022-12-18T01:00:08;102774.63;;;-6.08;86.72
50550;BME280;36505;52.512;13.460;2022-12-18T01:02:34;102774.28;;;-6.02;86.52
50550;BME280;36505;52.512;13.460;2022-12-18T01:05:00;102781.16;;;-6.13;86.45
50550;BME280;36505;52.512;13.460;2022-12-18T01:07:25;102782.53;;;-6.06;87.34
50550;BME280;36505;52.512;13.460;2022-12-18T01:09:50;102769.53;;;-5.96;87.07
50550;BME280;36505;52.512;13.460;2022-12-18T01:12:16;102785.97;;;-5.88;86.67
50550;BME280;36505;52.512;13.460;2022-12-18T01:14:41;102784.63;;;-5.81;86.57
50550;BME280;36505;52.512;13.460;2022-12-18T01:17:06;102780.88;;;-5.93;86.03
50550;BME280;36505;52.512;13.460;2022-12-18T01:19:32;102788.78;;;-5.91;86.89
50550;BME280;36505;52.512;13.460;2022-12-18T01:21:58;102795.53;;;-5.86;86.98
50550;BME280;36505;52.512;13.460;2022-12-18T01:24:23;102800.72;;;-5.83;86.72
50550;BME280;36505;52.512;13.460;2022-12-18T01:26:48;102811.47;;;-5.84;85.62
50550;BME280;36505;52.512;13.460;2022-12-18T01:29:14;102805.06;;;-5.96;85.62
50550;BME280;36505;52.512;13.460;2022-12-18T01:31:39;102819.44;;;-5.99;85.78
50550;BME280;36505;52.512;13.460;2022-12-18T01:34:05;102818.69;;;-6.01;86.20
50550;BME280;36505;52.512;13.460;2022-12-18T01:36:33;102811.97;;;-6.08;86.01
50550;BME280;36505;52.512;13.460;2022-12-18T01:39:00;102814.28;;;-6.02;85.78
50550;BME280;36505;52.512;13.460;2022-12-18T01:41:28;102821.34;;;-6.01;85.81
50550;BME280;36505;52.512;13.460;2022-12-18T01:50:27;102815.47;;;-5.91;85.50
50550;BME280;36505;52.512;13.460;2022-12-18T01:53:17;102816.03;;;-5.86;85.28
50550;BME280;36505;52.512;13.460;2022-12-18T01:56:02;102807.50;;;-5.77;85.35
50550;BME280;36505;52.512;13.460;2022-12-18T01:58:35;102824.34;;;-5.91;85.32
50550;BME280;36505;52.512;13.460;2022-12-18T02:01:02;102823.59;;;-6.09;85.24
50550;BME280;36505;52.512;13.460;2022-12-18T02:03:27;102823.38;;;-6.06;85.53
50550;BME280;36505;52.512;13.460;2022-12-18T02:06:07;102820.72;;;-6.06;85.66
50550;BME280;36505;52.512;13.460;2022-12-18T02:11:21;102825.34;;;-5.93;85.32
50550;BME280;36505;52.512;13.460;2022-12-18T02:16:40;102831.09;;;-5.85;84.96
50550;BME280;36505;52.512;13.460;2022-12-18T02:22:27;102828.41;;;-5.85;84.67
50550;BME280;36505;52.512;13.460;2022-12-18T02:27:31;102823.31;;;-5.88;85.43
50550;BME280;36505;52.512;13.460;2022-12-18T02:29:59;102826.31;;;-5.94;85.48
50550;BME280;36505;52.512;13.460;2022-12-18T02:32:34;102825.34;;;-5.93;85.05
50550;BME280;36505;52.512;13.460;2022-12-18T02:35:02;102829.75;;;-5.92;85.28
50550;BME280;36505;52.512;13.460;2022-12-18T02:37:30;102841.03;;;-5.87;84.88
50550;BME280;36505;52.512;13.460;2022-12-18T02:39:57;102841.75;;;-5.85;84.75
50550;BME280;36505;52.512;13.460;2022-12-18T02:42:24;102842.63;;;-5.85;84.67
50550;BME280;36505;52.512;13.460;2022-12-18T02:44:51;102842.63;;;-5.85;85.00
50550;BME280;36505;52.512;13.460;2022-12-18T02:47:19;102840.47;;;-5.78;85.79
50550;BME280;36505;52.512;13.460;2022-12-18T02:57:40;102863.16;;;-5.55;85.01
50550;BME280;36505;52.512;13.460;2022-12-18T03:00:23;102856.63;;;-5.66;84.33
50550;BME280;36505;52.512;13.460;2022-12-18T03:02:55;102847.94;;;-5.69;83.54
50550;BME280;36505;52.512;13.460;2022-12-18T03:05:46;102849.53;;;-5.81;83.67
50550;BME280;36505;52.512;13.460;2022-12-18T03:08:26;102846.63;;;-5.92;84.15
50550;BME280;36505;52.512;13.460;2022-12-18T03:11:00;102847.41;;;-5.90;83.96
50550;BME280;36505;52.512;13.460;2022-12-18T03:13:36;102849.88;;;-5.87;84.08
50550;BME280;36505;52.512;13.460;2022-12-18T03:16:06;102847.88;;;-5.83;84.19
50550;BME280;36505;52.512;13.460;2022-12-18T03:18:47;102841.56;;;-5.96;84.07
50550;BME280;36505;52.512;13.460;2022-12-18T03:21:17;102840.53;;;-6.10;85.04
50550;BME280;36505;52.512;13.460;2022-12-18T03:23:47;102856.59;;;-6.11;85.06
50550;BME280;36505;52.512;13.460;2022-12-18T03:26:17;102845.91;;;-6.27;84.67
50550;BME280;36505;52.512;13.460;2022-12-18T03:28:57;102855.03;;;-6.31;85.49
50550;BME280;36505;52.512;13.460;2022-12-18T03:31:26;102857.25;;;-6.39;84.89
50550;BME280;36505;52.512;13.460;2022-12-18T03:33:59;102862.06;;;-6.46;85.77
50550;BME280;36505;52.512;13.460;2022-12-18T03:36:26;102858.19;;;-6.40;85.82
50550;BME280;36505;52.512;13.460;2022-12-18T03:38:51;102857.88;;;-6.34;85.28
50550;BME280;36505;52.512;13.460;2022-12-18T03:41:30;102840.06;;;-6.33;85.50
50550;BME280;36505;52.512;13.460;2022-12-18T03:46:41;102842.81;;;-6.19;85.27
50550;BME280;36505;52.512;13.460;2022-12-18T03:49:12;102846.34;;;-6.19;85.04
50550;BME280;36505;52.512;13.460;2022-12-18T03:51:52;102853.75;;;-6.24;85.69
50550;BME280;36505;52.512;13.460;2022-12-18T03:54:20;102858.91;;;-6.21;85.15
50550;BME280;36505;52.512;13.460;2022-12-18T03:56:49;102863.50;;;-6.23;85.04
50550;BME280;36505;52.512;13.460;2022-12-18T03:59:16;102866.50;;;-6.29;85.11
50550;BME280;36505;52.512;13.460;2022-12-18T04:01:49;102859.94;;;-6.39;85.37
50550;BME280;36505;52.512;13.460;2022-12-18T04:04:18;102864.28;;;-6.54;85.92
50550;BME280;36505;52.512;13.460;2022-12-18T04:06:46;102854.81;;;-6.59;86.69
50550;BME280;36505;52.512;13.460;2022-12-18T04:09:13;102856.63;;;-6.60;86.12
50550;BME280;36505;52.512;13.460;2022-12-18T04:11:40;102855.47;;;-6.71;86.10
50550;BME280;36505;52.512;13.460;2022-12-18T04:14:06;102868.19;;;-6.94;87.24
50550;BME280;36505;52.512;13.460;2022-12-18T04:16:31;102859.88;;;-6.88;87.14
50550;BME280;36505;52.512;13.460;2022-12-18T04:18:56;102859.13;;;-6.90;87.16
50550;BME280;36505;52.512;13.460;2022-12-18T04:21:22;102862.41;;;-6.85;87.25
50550;BME280;36505;52.512;13.460;2022-12-18T04:23:48;102857.31;;;-6.89;86.37
50550;BME280;36505;52.512;13.460;2022-12-18T04:26:13;102880.47;;;-6.74;86.77
50550;BME280;36505;52.512;13.460;2022-12-18T04:28:39;102880.84;;;-6.64;86.53
50550;BME280;36505;52.512;13.460;2022-12-18T04:31:04;102878.78;;;-6.59;86.93
50550;BME280;36505;52.512;13.460;2022-12-18T04:33:29;102869.41;;;-6.66;86.19
50550;BME280;36505;52.512;13.460;2022-12-18T04:35:55;102871.88;;;-6.79;86.05
50550;BME280;36505;52.512;13.460;2022-12-18T04:38:20;102870.31;;;-6.83;86.57
50550;BME280;36505;52.512;13.460;2022-12-18T04:40:45;102878.47;;;-6.86;86.46
50550;BME280;36505;52.512;13.460;2022-12-18T04:43:11;102886.31;;;-6.83;86.20
50550;BME280;36505;52.512;13.460;2022-12-18T04:45:36;102890.44;;;-6.78;86.86
50550;BME280;36505;52.512;13.460;2022-12-18T04:48:03;102881.78;;;-6.65;86.42
50550;BME280;36505;52.512;13.460;2022-12-18T04:50:29;102882.91;;;-6.69;85.82
50550;BME280;36505;52.512;13.460;2022-12-18T04:52:55;102879.53;;;-6.73;85.87
50550;BME280;36505;52.512;13.460;2022-12-18T04:55:24;102883.31;;;-6.77;85.98
50550;BME280;36505;52.512;13.460;2022-12-18T04:57:49;102887.16;;;-6.83;86.04
50550;BME280;36505;52.512;13.460;2022-12-18T05:00:15;102885.28;;;-6.98;85.96
50550;BME280;36505;52.512;13.460;2022-12-18T05:02:40;102890.38;;;-6.93;86.67
50550;BME280;36505;52.512;13.460;2022-12-18T05:05:06;102890.03;;;-6.87;86.80
50550;BME280;36505;52.512;13.460;2022-12-18T05:07:31;102887.16;;;-6.83;86.76
50550;BME280;36505;52.512;13.460;2022-12-18T05:09:57;102889.97;;;-6.86;85.83
50550;BME280;36505;52.512;13.460;2022-12-18T05:12:22;102894.50;;;-6.88;86.61
50550;BME280;36505;52.512;13.460;2022-12-18T05:14:47;102896.41;;;-6.90;86.70
50550;BME280;36505;52.512;13.460;2022-12-18T05:17:13;102900.94;;;-6.92;86.86
50550;BME280;36505;52.512;13.460;2022-12-18T05:19:38;102901.75;;;-6.90;86.88
50550;BME280;36505;52.512;13.460;2022-12-18T05:22:07;102907.59;;;-6.83;87.08
50550;BME280;36505;52.512;13.460;2022-12-18T05:24:33;102915.59;;;-6.83;87.09
50550;BME280;36505;52.512;13.460;2022-12-18T05:26:58;102916.69;;;-6.87;87.27
50550;BME280;36505;52.512;13.460;2022-12-18T05:29:24;102921.63;;;-6.97;87.44
50550;BME280;36505;52.512;13.460;2022-12-18T05:31:49;102932.91;;;-6.92;87.28
50550;BME280;36505;52.512;13.460;2022-12-18T05:34:15;102925.25;;;-6.98;87.45
50550;BME280;36505;52.512;13.460;2022-12-18T05:36:40;102922.31;;;-6.93;87.78
50550;BME280;36505;52.512;13.460;2022-12-18T05:39:05;102935.41;;;-6.89;87.98
50550;BME280;36505;52.512;13.460;2022-12-18T05:41:31;102932.44;;;-6.83;87.86
50550;BME280;36505;52.512;13.460;2022-12-18T05:43:57;102937.78;;;-6.83;87.82
50550;BME280;36505;52.512;13.460;2022-12-18T05:46:23;102926.00;;;-6.79;88.11
50550;BME280;36505;52.512;13.460;2022-12-18T05:48:49;102930.16;;;-6.73;87.59
50550;BME280;36505;52.512;13.460;2022-12-18T05:51:17;102932.56;;;-6.68;87.92
50550;BME280;36505;52.512;13.460;2022-12-18T05:53:44;102934.47;;;-6.70;87.69
50550;BME280;36505;52.512;13.460;2022-12-18T05:56:12;102927.88;;;-6.63;87.70
50550;BME280;36505;52.512;13.460;2022-12-18T05:58:38;102927.09;;;-6.65;88.05
50550;BME280;36505;52.512;13.460;2022-12-18T06:01:16;102921.91;;;-6.51;87.97
50550;BME280;36505;52.512;13.460;2022-12-18T06:03:42;102928.88;;;-6.49;87.67
50550;BME280;36505;52.512;13.460;2022-12-18T06:06:15;102945.03;;;-6.52;87.98
50550;BME280;36505;52.512;13.460;2022-12-18T06:08:40;102947.22;;;-6.60;87.01
50550;BME280;36505;52.512;13.460;2022-12-18T06:11:06;102950.94;;;-6.62;87.71
50550;BME280;36505;52.512;13.460;2022-12-18T06:13:31;102952.66;;;-6.79;88.17
50550;BME280;36505;52.512;13.460;2022-12-18T06:15:56;102949.97;;;-6.79;88.60
50550;BME280;36505;52.512;13.460;2022-12-18T06:18:22;102952.19;;;-6.69;88.24
50550;BME280;36505;52.512;13.460;2022-12-18T06:20:55;102953.66;;;-6.81;88.22
50550;BME280;36505;52.512;13.460;2022-12-18T06:23:21;102956.31;;;-6.81;88.52
50550;BME280;36505;52.512;13.460;2022-12-18T06:25:46;102964.41;;;-6.83;88.83
50550;BME280;36505;52.512;13.460;2022-12-18T06:28:11;102962.03;;;-6.89;88.88
50550;BME280;36505;52.512;13.460;2022-12-18T06:30:37;102960.78;;;-6.82;88.74
50550;BME280;36505;52.512;13.460;2022-12-18T06:33:02;102963.91;;;-6.73;88.67
50550;BME280;36505;52.512;13.460;2022-12-18T06:35:27;102972.47;;;-6.67;88.35
50550;BME280;36505;52.512;13.460;2022-12-18T06:37:53;102972.00;;;-6.58;88.24
50550;BME280;36505;52.512;13.460;2022-12-18T06:40:18;102980.94;;;-6.59;87.83
50550;BME280;36505;52.512;13.460;2022-12-18T06:42:44;102986.31;;;-6.60;87.56
50550;BME280;36505;52.512;13.460;2022-12-18T06:45:15;102994.97;;;-6.55;87.28
50550;BME280;36505;52.512;13.460;2022-12-18T06:47:41;102995.13;;;-6.58;87.47
50550;BME280;36505;52.512;13.460;2022-12-18T06:50:07;102988.59;;;-6.87;87.55
50550;BME280;36505;52.512;13.460;2022-12-18T06:52:33;102993.06;;;-6.88;88.33
50550;BME280;36505;52.512;13.460;2022-12-18T06:54:58;102999.19;;;-6.86;88.18
50550;BME280;36505;52.512;13.460;2022-12-18T06:57:24;103016.28;;;-6.90;88.05
50550;BME280;36505;52.512;13.460;2022-12-18T06:59:49;103013.88;;;-6.96;88.36
50550;BME280;36505;52.512;13.460;2022-12-18T07:02:15;103016.16;;;-6.88;88.35
50550;BME280;36505;52.512;13.460;2022-12-18T07:04:40;103024.56;;;-6.79;88.12
50550;BME280;36505;52.512;13.460;2022-12-18T07:07:05;103020.41;;;-6.67;88.42
50550;BME280;36505;52.512;13.460;2022-12-18T07:09:31;103003.09;;;-6.58;87.31
50550;BME280;36505;52.512;13.460;2022-12-18T07:11:56;102981.72;;;-6.74;87.89
50550;BME280;36505;52.512;13.460;2022-12-18T07:14:22;102985.03;;;-6.69;87.39
50550;BME280;36505;52.512;13.460;2022-12-18T07:16:47;103001.56;;;-6.62;87.15
50550;BME280;36505;52.512;13.460;2022-12-18T07:19:12;103008.34;;;-6.74;87.11
50550;BME280;36505;52.512;13.460;2022-12-18T07:21:38;102988.84;;;-6.74;87.12
50550;BME280;36505;52.512;13.460;2022-12-18T07:24:04;103008.44;;;-6.58;87.36
50550;BME280;36505;52.512;13.460;2022-12-18T07:26:29;103019.94;;;-6.75;86.72
50550;BME280;36505;52.512;13.460;2022-12-18T07:28:56;103011.25;;;-6.79;87.10
50550;BME280;36505;52.512;13.460;2022-12-18T07:31:22;103013.13;;;-6.81;88.04
50550;BME280;36505;52.512;13.460;2022-12-18T07:33:49;103016.91;;;-6.85;87.56
50550;BME280;36505;52.512;13.460;2022-12-18T07:36:15;103010.31;;;-6.78;87.62
50550;BME280;36505;52.512;13.460;2022-12-18T07:38:41;103009.38;;;-6.76;87.46
50550;BME280;36505;52.512;13.460;2022-12-18T07:41:09;103009.22;;;-6.73;87.31
50550;BME280;36505;52.512;13.460;2022-12-18T07:43:35;103002.63;;;-6.66;87.81
50550;BME280;36505;52.512;13.460;2022-12-18T07:46:01;103009.63;;;-6.64;86.93
50550;BME280;36505;52.512;13.460;2022-12-18T07:48:28;103008.75;;;-6.64;87.19
50550;BME280;36505;52.512;13.460;2022-12-18T07:50:53;103024.56;;;-6.61;87.42
50550;BME280;36505;52.512;13.460;2022-12-18T07:53:18;103016.88;;;-6.67;87.15
50550;BME280;36505;52.512;13.460;2022-12-18T07:55:44;103014.22;;;-6.67;87.62
50550;BME280;36505;52.512;13.460;2022-12-18T07:58:09;103010.41;;;-6.79;87.42
50550;BME280;36505;52.512;13.460;2022-12-18T08:00:35;103001.41;;;-6.76;87.84
50550;BME280;36505;52.512;13.460;2022-12-18T08:03:01;103015.22;;;-6.87;87.75
50550;BME280;36505;52.512;13.460;2022-12-18T08:05:27;103017.91;;;-6.87;88.28
50550;BME280;36505;52.512;13.460;2022-12-18T08:07:52;103024.97;;;-6.86;88.28
50550;BME280;36505;52.512;13.460;2022-12-18T08:10:19;103013.88;;;-6.96;88.46
50550;BME280;36505;52.512;13.460;2022-12-18T08:12:44;103028.94;;;-6.95;88.77
50550;BME280;36505;52.512;13.460;2022-12-18T08:15:10;103022.66;;;-6.94;88.53
50550;BME280;36505;52.512;13.460;2022-12-18T08:17:35;103015.47;;;-6.92;88.94
50550;BME280;36505;52.512;13.460;2022-12-18T08:20:01;103013.19;;;-6.99;88.60
50550;BME280;36505;52.512;13.460;2022-12-18T08:22:26;103016.56;;;-6.96;89.16
50550;BME280;36505;52.512;13.460;2022-12-18T08:24:52;103003.72;;;-7.05;88.76
50550;BME280;36505;52.512;13.460;2022-12-18T08:27:17;103036.41;;;-6.84;88.55
50550;BME280;36505;52.512;13.460;2022-12-18T08:29:42;103036.16;;;-6.80;88.18
50550;BME280;36505;52.512;13.460;2022-12-18T08:32:08;103028.47;;;-6.86;88.09
50550;BME280;36505;52.512;13.460;2022-12-18T08:34:33;103030.03;;;-6.82;88.55
50550;BME280;36505;52.512;13.460;2022-12-18T08:36:59;103029.84;;;-6.77;87.34
50550;BME280;36505;52.512;13.460;2022-12-18T08:39:24;103033.00;;;-6.88;88.09
50550;BME280;36505;52.512;13.460;2022-12-18T08:41:50;103038.03;;;-6.82;88.21
50550;BME280;36505;52.512;13.460;2022-12-18T08:44:34;103047.25;;;-6.70;88.15
50550;BME280;36505;52.512;13.460;2022-12-18T08:47:06;103048.41;;;-6.58;87.65
50550;BME280;36505;52.512;13.460;2022-12-18T08:49:33;103052.94;;;-6.60;87.77
50550;BME280;36505;52.512;13.460;2022-12-18T08:51:58;103050.66;;;-6.68;87.32
50550;BME280;36505;52.512;13.460;2022-12-18T08:54:24;103046.19;;;-6.67;87.72
50550;BME280;36505;52.512;13.460;2022-12-18T08:56:50;103049.53;;;-6.62;87.31
50550;BME280;36505;52.512;13.460;2022-12-18T08:59:19;103054.84;;;-6.62;87.69
50550;BME280;36505;52.512;13.460;2022-12-18T09:01:45;103061.09;;;-6.46;88.20
50550;BME280;36505;52.512;13.460;2022-12-18T09:04:12;103053.72;;;-6.41;87.71
50550;BME280;36505;52.512;13.460;2022-12-18T09:06:38;103058.75;;;-6.18;87.79
50550;BME280;36505;52.512;13.460;2022-12-18T09:09:04;103056.09;;;-6.18;87.16
50550;BME280;36505;52.512;13.460;2022-12-18T09:11:30;103056.41;;;-6.24;86.15
50550;BME280;36505;52.512;13.460;2022-12-18T09:13:57;103051.84;;;-6.39;86.72
50550;BME280;36505;52.512;13.460;2022-12-18T09:16:24;103072.56;;;-6.27;86.47
50550;BME280;36505;52.512;13.460;2022-12-18T09:18:50;103066.91;;;-6.21;87.00
50550;BME280;36505;52.512;13.460;2022-12-18T09:21:18;103077.56;;;-6.21;86.39
50550;BME280;36505;52.512;13.460;2022-12-18T09:23:49;103070.84;;;-6.28;86.62
50550;BME280;36505;52.512;13.460;2022-12-18T09:26:15;103070.22;;;-6.16;86.98
50550;BME280;36505;52.512;13.460;2022-12-18T09:28:41;103075.34;;;-5.95;86.63
50550;BME280;36505;52.512;13.460;2022-12-18T09:31:08;103087.69;;;-5.77;85.73
50550;BME280;36505;52.512;13.460;2022-12-18T09:33:37;103077.47;;;-5.86;85.41
50550;BME280;36505;52.512;13.460;2022-12-18T09:36:05;103073.69;;;-5.98;86.28
50550;BME280;36505;52.512;13.460;2022-12-18T09:38:31;103082.50;;;-5.96;86.37
50550;BME280;36505;52.512;13.460;2022-12-18T09:41:00;103073.38;;;-5.92;86.64
50550;BME280;36505;52.512;13.460;2022-12-18T09:43:37;103059.16;;;-5.92;86.63
50550;BME280;36505;52.512;13.460;2022-12-18T09:46:08;103054.34;;;-5.86;86.78
50550;BME280;36505;52.512;13.460;2022-12-18T09:48:39;103044.63;;;-5.87;87.71
50550;BME280;36505;52.512;13.460;2022-12-18T09:51:19;103044.66;;;-5.71;87.37
50550;BME280;36505;52.512;13.460;2022-12-18T09:53:53;103033.38;;;-5.76;87.42
50550;BME280;36505;52.512;13.460;2022-12-18T09:56:21;103043.56;;;-5.67;88.28
50550;BME280;36505;52.512;13.460;2022-12-18T09:58:57;103035.78;;;-5.72;87.58
50550;BME280;36505;52.512;13.460;2022-12-18T10:01:24;103032.69;;;-5.64;88.81
50550;BME280;36505;52.512;13.460;2022-12-18T10:03:50;103016.34;;;-5.58;88.42
50550;BME280;36505;52.512;13.460;2022-12-18T10:09:08;103012.28;;;-5.65;88.91
50550;BME280;36505;52.512;13.460;2022-12-18T10:14:53;102999.13;;;-5.52;88.96
50550;BME280;36505;52.512;13.460;2022-12-18T10:17:33;103003.50;;;-5.51;88.78
50550;BME280;36505;52.512;13.460;2022-12-18T10:20:15;103008.63;;;-5.47;88.18
50550;BME280;36505;52.512;13.460;2022-12-18T10:22:53;103008.34;;;-5.42;88.30
50550;BME280;36505;52.512;13.460;2022-12-18T10:25:28;103003.53;;;-5.36;89.01
50550;BME280;36505;52.512;13.460;2022-12-18T10:27:58;102998.63;;;-5.28;88.60
50550;BME280;36505;52.512;13.460;2022-12-18T10:30:25;103009.88;;;-5.23;88.57
50550;BME280;36505;52.512;13.460;2022-12-18T10:32:51;103000.94;;;-5.22;89.13
50550;BME280;36505;52.512;13.460;2022-12-18T10:35:24;103006.13;;;-5.19;88.64
50550;BME280;36505;52.512;13.460;2022-12-18T10:40:33;102996.97;;;-5.30;89.94
50550;BME280;36505;52.512;13.460;2022-12-18T10:43:13;102989.53;;;-5.25;90.47
50550;BME280;36505;52.512;13.460;2022-12-18T10:45:40;102983.88;;;-5.35;90.32
50550;BME280;36505;52.512;13.460;2022-12-18T10:48:18;102980.09;;;-5.31;90.13
50550;BME280;36505;52.512;13.460;2022-12-18T10:50:48;102987.56;;;-5.22;90.40
50550;BME280;36505;52.512;13.460;2022-12-18T10:53:20;102981.66;;;-5.27;90.44
50550;BME280;36505;52.512;13.460;2022-12-18T10:55:46;102976.97;;;-5.23;90.74
50550;BME280;36505;52.512;13.460;2022-12-18T10:58:32;102975.50;;;-5.13;90.34
50550;BME280;36505;52.512;13.460;2022-12-18T11:01:15;102967.63;;;-5.00;89.43
50550;BME280;36505;52.512;13.460;2022-12-18T11:03:42;102962.00;;;-4.96;89.59
50550;BME280;36505;52.512;13.460;2022-12-18T11:06:14;102964.09;;;-5.01;89.30
50550;BME280;36505;52.512;13.460;2022-12-18T11:08:46;102958.25;;;-5.07;89.60
50550;BME280;36505;52.512;13.460;2022-12-18T11:11:23;102968.94;;;-5.07;89.58
50550;BME280;36505;52.512;13.460;2022-12-18T11:14:17;102952.13;;;-5.09;90.04
50550;BME280;36505;52.512;13.460;2022-12-18T11:16:48;102956.25;;;-5.04;90.11
50550;BME280;36505;52.512;13.460;2022-12-18T11:19:35;102963.97;;;-5.13;89.51
50550;BME280;36505;52.512;13.460;2022-12-18T11:22:16;102955.09;;;-5.14;90.39
50550;BME280;36505;52.512;13.460;2022-12-18T11:24:53;102961.91;;;-5.24;90.23
50550;BME280;36505;52.512;13.460;2022-12-18T11:27:20;102959.72;;;-5.18;90.50
50550;BME280;36505;52.512;13.460;2022-12-18T11:29:46;102957.69;;;-5.12;90.76
50550;BME280;36505;52.512;13.460;2022-12-18T11:34:42;102956.31;;;-4.90;90.03
50550;BME280;36505;52.512;13.460;2022-12-18T11:37:11;102967.31;;;-4.80;89.50
50550;BME280;36505;52.512;13.460;2022-12-18T11:39:49;102965.69;;;-4.83;89.42
50550;BME280;36505;52.512;13.460;2022-12-18T11:44:55;102961.69;;;-4.75;88.43
50550;BME280;36505;52.512;13.460;2022-12-18T11:50:02;102972.13;;;-5.17;89.72
50550;BME280;36505;52.512;13.460;2022-12-18T11:52:34;102974.81;;;-5.17;89.43
50550;BME280;36505;52.512;13.460;2022-12-18T11:55:10;102971.31;;;-5.33;89.85
50550;BME280;36505;52.512;13.460;2022-12-18T12:00:21;102998.69;;;-5.29;90.05
50550;BME280;36505;52.512;13.460;2022-12-18T12:06:06;102994.38;;;-5.32;90.67
50550;BME280;36505;52.512;13.460;2022-12-18T12:08:44;102994.50;;;-5.33;89.78
50550;BME280;36505;52.512;13.460;2022-12-18T12:14:26;102999.03;;;-5.35;90.74
50550;BME280;36505;52.512;13.460;2022-12-18T12:17:03;102996.88;;;-5.29;90.53
50550;BME280;36505;52.512;13.460;2022-12-18T12:25:40;102993.78;;;-5.05;89.82
50550;BME280;36505;52.512;13.460;2022-12-18T12:38:59;103007.78;;;-4.86;88.95
50550;BME280;36505;52.512;13.460;2022-12-18T12:41:31;103012.44;;;-4.90;88.49
50550;BME280;36505;52.512;13.460;2022-12-18T12:44:43;103014.44;;;-4.93;88.39
50550;BME280;36505;52.512;13.460;2022-12-18T12:47:35;103023.81;;;-5.02;88.68
50550;BME280;36505;52.512;13.460;2022-12-18T12:50:05;103003.81;;;-4.95;88.67
50550;BME280;36505;52.512;13.460;2022-12-18T12:52:42;103013.72;;;-4.81;88.25
50550;BME280;36505;52.512;13.460;2022-12-18T12:55:15;103006.78;;;-4.69;88.44
50550;BME280;36505;52.512;13.460;2022-12-18T12:57:52;102993.53;;;-4.71;87.58
50550;BME280;36505;52.512;13.460;2022-12-18T13:00:21;102984.41;;;-4.83;88.12
50550;BME280;36505;52.512;13.460;2022-12-18T13:03:12;102970.00;;;-4.80;88.49
50550;BME280;36505;52.512;13.460;2022-12-18T13:08:24;102965.03;;;-4.86;88.34
50550;BME280;36505;52.512;13.460;2022-12-18T13:10:51;102957.41;;;-4.78;87.99
50550;BME280;36505;52.512;13.460;2022-12-18T13:13:49;102942.53;;;-4.68;87.98
50550;BME280;36505;52.512;13.460;2022-12-18T13:16:18;102960.28;;;-4.67;87.82
50550;BME280;36505;52.512;13.460;2022-12-18T13:18:51;102966.41;;;-4.65;88.02
50550;BME280;36505;52.512;13.460;2022-12-18T13:21:29;102969.47;;;-4.71;87.83
50550;BME280;36505;52.512;13.460;2022-12-18T13:23:55;102971.53;;;-4.76;87.91
50550;BME280;36505;52.512;13.460;2022-12-18T13:34:23;102951.47;;;-4.83;88.48
50550;BME280;36505;52.512;13.460;2022-12-18T13:36:50;102963.50;;;-4.76;88.23
50550;BME280;36505;52.512;13.460;2022-12-18T13:44:59;102966.53;;;-4.52;87.76
50550;BME280;36505;52.512;13.460;2022-12-18T13:47:36;102960.78;;;-4.60;87.68
50550;BME280;36505;52.512;13.460;2022-12-18T13:50:25;102942.00;;;-4.59;87.99
50550;BME280;36505;52.512;13.460;2022-12-18T13:52:52;102927.53;;;-4.70;88.17
50550;BME280;36505;52.512;13.460;2022-12-18T13:55:19;102926.78;;;-4.72;88.29
50550;BME280;36505;52.512;13.460;2022-12-18T13:57:46;102937.47;;;-4.72;88.64
50550;BME280;36505;52.512;13.460;2022-12-18T14:00:27;102944.44;;;-4.70;88.96
50550;BME280;36505;52.512;13.460;2022-12-18T14:02:53;102945.84;;;-4.79;88.39
50550;BME280;36505;52.512;13.460;2022-12-18T14:05:29;102929.66;;;-4.91;88.83
50550;BME280;36505;52.512;13.460;2022-12-18T14:08:10;102902.44;;;-4.98;89.11
50550;BME280;36505;52.512;13.460;2022-12-18T14:10:43;102906.00;;;-4.97;89.33
50550;BME280;36505;52.512;13.460;2022-12-18T14:13:13;102924.25;;;-4.90;89.76
50550;BME280;36505;52.512;13.460;2022-12-18T14:15:42;102919.84;;;-4.91;89.87
50550;BME280;36505;52.512;13.460;2022-12-18T14:18:26;102924.00;;;-4.85;89.89